sensor_id;sensor_type;location;lat;lon;timestamp;P1;durP1;ratioP1;P2;durP2;ratioP2
22715;SDS011;11525;51.152;4.456;2023-09-07T00:01:29;8.82;;;6.97;;
22715;SDS011;11525;51.152;4.456;2023-09-07T00:03:55;8.63;;;7.10;;
22715;SDS011;11525;51.152;4.456;2023-09-07T00:06:21;7.47;;;6.78;;
22715;SDS011;11525;51.152;4.456;2023-09-07T00:08:46;10.80;;;7.05;;
22715;SDS011;11525;51.152;4.456;2023-09-07T00:11:12;9.65;;;7.32;;
22715;SDS011;11525;51.152;4.456;2023-09-07T00:13:38;13.23;;;8.05;;
22715;SDS011;11525;51.152;4.456;2023-09-07T00:16:04;7.95;;;7.15;;
22715;SDS011;11525;51.152;4.456;2023-09-07T00:18:31;10.35;;;8.02;;
22715;SDS011;11525;51.152;4.456;2023-09-07T00:20:58;9.32;;;7.15;;
22715;SDS011;11525;51.152;4.456;2023-09-07T00:23:24;12.95;;;7.85;;
22715;SDS011;11525;51.152;4.456;2023-09-07T00:25:50;11.50;;;7.57;;
22715;SDS011;11525;51.152;4.456;2023-09-07T00:28:16;11.60;;;7.43;;
22715;SDS011;11525;51.152;4.456;2023-09-07T00:30:42;8.88;;;7.28;;
22715;SDS011;11525;51.152;4.456;2023-09-07T00:33:08;10.38;;;7.47;;
22715;SDS011;11525;51.152;4.456;2023-09-07T00:35:33;7.93;;;7.13;;
22715;SDS011;11525;51.152;4.456;2023-09-07T00:38:00;9.68;;;7.68;;
22715;SDS011;11525;51.152;4.456;2023-09-07T00:40:26;8.88;;;7.75;;
22715;SDS011;11525;51.152;4.456;2023-09-07T00:42:52;10.88;;;7.60;;
22715;SDS011;11525;51.152;4.456;2023-09-07T00:45:18;10.23;;;8.18;;
22715;SDS011;11525;51.152;4.456;2023-09-07T00:47:44;9.40;;;8.18;;
22715;SDS011;11525;51.152;4.456;2023-09-07T00:50:10;10.00;;;7.93;;
22715;SDS011;11525;51.152;4.456;2023-09-07T00:52:42;12.50;;;8.40;;
22715;SDS011;11525;51.152;4.456;2023-09-07T00:55:08;11.63;;;7.63;;
22715;SDS011;11525;51.152;4.456;2023-09-07T00:57:34;11.85;;;7.95;;
22715;SDS011;11525;51.152;4.456;2023-09-07T01:00:02;9.77;;;7.82;;
22715;SDS011;11525;51.152;4.456;2023-09-07T01:02:30;11.80;;;7.80;;
22715;SDS011;11525;51.152;4.456;2023-09-07T01:04:56;10.57;;;8.38;;
22715;SDS011;11525;51.152;4.456;2023-09-07T01:07:32;11.13;;;8.48;;
22715;SDS011;11525;51.152;4.456;2023-09-07T01:10:02;8.90;;;7.95;;
22715;SDS011;11525;51.152;4.456;2023-09-07T01:12:29;10.93;;;8.57;;
22715;SDS011;11525;51.152;4.456;2023-09-07T01:14:55;9.35;;;7.53;;
22715;SDS011;11525;51.152;4.456;2023-09-07T01:17:21;9.43;;;8.13;;
22715;SDS011;11525;51.152;4.456;2023-09-07T01:19:48;10.25;;;7.40;;
22715;SDS011;11525;51.152;4.456;2023-09-07T01:22:16;10.70;;;7.60;;
22715;SDS011;11525;51.152;4.456;2023-09-07T01:24:44;12.55;;;8.00;;
22715;SDS011;11525;51.152;4.456;2023-09-07T01:27:12;13.98;;;8.57;;
22715;SDS011;11525;51.152;4.456;2023-09-07T01:29:38;14.32;;;8.60;;
22715;SDS011;11525;51.152;4.456;2023-09-07T01:32:05;12.02;;;7.95;;
22715;SDS011;11525;51.152;4.456;2023-09-07T01:34:31;9.90;;;8.20;;
22715;SDS011;11525;51.152;4.456;2023-09-07T01:36:57;9.98;;;8.57;;
22715;SDS011;11525;51.152;4.456;2023-09-07T01:39:22;11.30;;;8.32;;
22715;SDS011;11525;51.152;4.456;2023-09-07T01:41:48;9.75;;;7.88;;
22715;SDS011;11525;51.152;4.456;2023-09-07T01:44:14;10.10;;;8.65;;
22715;SDS011;11525;51.152;4.456;2023-09-07T01:46:39;11.60;;;8.60;;
22715;SDS011;11525;51.152;4.456;2023-09-07T01:49:05;12.95;;;8.13;;
22715;SDS011;11525;51.152;4.456;2023-09-07T01:51:30;10.50;;;8.50;;
22715;SDS011;11525;51.152;4.456;2023-09-07T01:53:56;11.20;;;8.20;;
22715;SDS011;11525;51.152;4.456;2023-09-07T01:56:22;10.70;;;8.60;;
22715;SDS011;11525;51.152;4.456;2023-09-07T01:58:47;13.10;;;8.88;;
22715;SDS011;11525;51.152;4.456;2023-09-07T02:01:46;9.50;;;8.30;;
22715;SDS011;11525;51.152;4.456;2023-09-07T02:04:05;11.60;;;8.40;;
22715;SDS011;11525;51.152;4.456;2023-09-07T02:06:31;12.65;;;8.45;;
22715;SDS011;11525;51.152;4.456;2023-09-07T02:08:57;10.38;;;9.15;;
22715;SDS011;11525;51.152;4.456;2023-09-07T02:11:22;11.93;;;9.00;;
22715;SDS011;11525;51.152;4.456;2023-09-07T02:13:48;9.73;;;8.45;;
22715;SDS011;11525;51.152;4.456;2023-09-07T02:16:14;10.02;;;9.02;;
22715;SDS011;11525;51.152;4.456;2023-09-07T02:18:39;11.52;;;8.80;;
22715;SDS011;11525;51.152;4.456;2023-09-07T02:21:08;12.43;;;8.98;;
22715;SDS011;11525;51.152;4.456;2023-09-07T02:23:34;10.63;;;8.82;;
22715;SDS011;11525;51.152;4.456;2023-09-07T02:26:01;11.07;;;9.27;;
22715;SDS011;11525;51.152;4.456;2023-09-07T02:28:27;13.68;;;9.13;;
22715;SDS011;11525;51.152;4.456;2023-09-07T02:30:53;10.02;;;8.70;;
22715;SDS011;11525;51.152;4.456;2023-09-07T02:33:19;10.80;;;9.10;;
22715;SDS011;11525;51.152;4.456;2023-09-07T02:35:45;10.77;;;9.15;;
22715;SDS011;11525;51.152;4.456;2023-09-07T02:38:13;13.73;;;9.27;;
22715;SDS011;11525;51.152;4.456;2023-09-07T02:40:40;10.90;;;9.80;;
22715;SDS011;11525;51.152;4.456;2023-09-07T02:43:08;10.32;;;9.15;;
22715;SDS011;11525;51.152;4.456;2023-09-07T02:45:37;15.23;;;10.35;;
22715;SDS011;11525;51.152;4.456;2023-09-07T02:48:04;10.45;;;9.30;;
22715;SDS011;11525;51.152;4.456;2023-09-07T02:50:31;15.02;;;9.50;;
22715;SDS011;11525;51.152;4.456;2023-09-07T02:52:58;12.52;;;9.57;;
22715;SDS011;11525;51.152;4.456;2023-09-07T02:55:24;11.57;;;9.48;;
22715;SDS011;11525;51.152;4.456;2023-09-07T02:57:51;16.83;;;9.77;;
22715;SDS011;11525;51.152;4.456;2023-09-07T03:00:16;13.13;;;10.52;;
22715;SDS011;11525;51.152;4.456;2023-09-07T03:02:43;12.68;;;9.65;;
22715;SDS011;11525;51.152;4.456;2023-09-07T03:05:09;10.48;;;9.38;;
22715;SDS011;11525;51.152;4.456;2023-09-07T03:07:35;12.00;;;9.77;;
22715;SDS011;11525;51.152;4.456;2023-09-07T03:10:00;12.85;;;10.68;;
22715;SDS011;11525;51.152;4.456;2023-09-07T03:12:27;12.68;;;10.63;;
22715;SDS011;11525;51.152;4.456;2023-09-07T03:14:53;12.30;;;9.57;;
22715;SDS011;11525;51.152;4.456;2023-09-07T03:17:19;12.43;;;10.77;;
22715;SDS011;11525;51.152;4.456;2023-09-07T03:19:47;12.30;;;9.75;;
22715;SDS011;11525;51.152;4.456;2023-09-07T03:22:13;12.50;;;9.55;;
22715;SDS011;11525;51.152;4.456;2023-09-07T03:24:39;14.90;;;10.30;;
22715;SDS011;11525;51.152;4.456;2023-09-07T03:27:05;12.95;;;9.80;;
22715;SDS011;11525;51.152;4.456;2023-09-07T03:29:31;13.60;;;10.07;;
22715;SDS011;11525;51.152;4.456;2023-09-07T03:32:00;12.80;;;9.60;;
22715;SDS011;11525;51.152;4.456;2023-09-07T03:34:26;12.15;;;9.60;;
22715;SDS011;11525;51.152;4.456;2023-09-07T03:36:52;14.55;;;10.25;;
22715;SDS011;11525;51.152;4.456;2023-09-07T03:39:18;13.52;;;10.35;;
22715;SDS011;11525;51.152;4.456;2023-09-07T03:41:49;13.07;;;9.43;;
22715;SDS011;11525;51.152;4.456;2023-09-07T03:44:15;13.10;;;9.57;;
22715;SDS011;11525;51.152;4.456;2023-09-07T03:46:41;16.45;;;10.20;;
22715;SDS011;11525;51.152;4.456;2023-09-07T03:49:06;12.35;;;10.45;;
22715;SDS011;11525;51.152;4.456;2023-09-07T03:51:32;15.93;;;12.70;;
22715;SDS011;11525;51.152;4.456;2023-09-07T03:53:58;21.65;;;13.43;;
22715;SDS011;11525;51.152;4.456;2023-09-07T03:56:24;17.77;;;13.85;;
22715;SDS011;11525;51.152;4.456;2023-09-07T03:58:50;15.98;;;13.75;;
22715;SDS011;11525;51.152;4.456;2023-09-07T04:01:16;16.05;;;14.32;;
22715;SDS011;11525;51.152;4.456;2023-09-07T04:03:42;19.63;;;13.52;;
22715;SDS011;11525;51.152;4.456;2023-09-07T04:06:07;18.77;;;15.55;;
22715;SDS011;11525;51.152;4.456;2023-09-07T04:08:33;17.00;;;13.98;;
22715;SDS011;11525;51.152;4.456;2023-09-07T04:11:04;20.98;;;13.82;;
22715;SDS011;11525;51.152;4.456;2023-09-07T04:13:30;17.67;;;13.50;;
22715;SDS011;11525;51.152;4.456;2023-09-07T04:15:56;16.38;;;14.10;;
22715;SDS011;11525;51.152;4.456;2023-09-07T04:18:22;16.60;;;14.15;;
22715;SDS011;11525;51.152;4.456;2023-09-07T04:20:47;19.95;;;14.57;;
22715;SDS011;11525;51.152;4.456;2023-09-07T04:23:13;17.45;;;13.90;;
22715;SDS011;11525;51.152;4.456;2023-09-07T04:25:39;17.55;;;13.35;;
22715;SDS011;11525;51.152;4.456;2023-09-07T04:28:05;19.05;;;13.68;;
22715;SDS011;11525;51.152;4.456;2023-09-07T04:30:32;16.88;;;13.07;;
22715;SDS011;11525;51.152;4.456;2023-09-07T04:32:58;15.60;;;12.23;;
22715;SDS011;11525;51.152;4.456;2023-09-07T04:35:30;14.82;;;12.35;;
22715;SDS011;11525;51.152;4.456;2023-09-07T04:37:56;15.88;;;13.18;;
22715;SDS011;11525;51.152;4.456;2023-09-07T04:40:22;16.15;;;13.73;;
22715;SDS011;11525;51.152;4.456;2023-09-07T04:42:48;16.92;;;13.85;;
22715;SDS011;11525;51.152;4.456;2023-09-07T04:45:14;14.85;;;13.32;;
22715;SDS011;11525;51.152;4.456;2023-09-07T04:47:40;16.08;;;13.68;;
22715;SDS011;11525;51.152;4.456;2023-09-07T04:50:06;19.08;;;13.60;;
22715;SDS011;11525;51.152;4.456;2023-09-07T04:52:32;16.25;;;13.65;;
22715;SDS011;11525;51.152;4.456;2023-09-07T04:54:58;14.10;;;11.73;;
22715;SDS011;11525;51.152;4.456;2023-09-07T04:57:23;14.25;;;12.75;;
22715;SDS011;11525;51.152;4.456;2023-09-07T04:59:49;17.52;;;13.98;;
22715;SDS011;11525;51.152;4.456;2023-09-07T05:02:14;19.30;;;12.23;;
22715;SDS011;11525;51.152;4.456;2023-09-07T05:04:40;17.40;;;14.18;;
22715;SDS011;11525;51.152;4.456;2023-09-07T05:07:06;16.60;;;12.85;;
22715;SDS011;11525;51.152;4.456;2023-09-07T05:09:31;17.90;;;13.32;;
22715;SDS011;11525;51.152;4.456;2023-09-07T05:11:58;15.93;;;13.10;;
22715;SDS011;11525;51.152;4.456;2023-09-07T05:14:24;17.38;;;13.50;;
22715;SDS011;11525;51.152;4.456;2023-09-07T05:16:50;20.30;;;13.40;;
22715;SDS011;11525;51.152;4.456;2023-09-07T05:19:16;16.15;;;13.25;;
22715;SDS011;11525;51.152;4.456;2023-09-07T05:21:42;19.92;;;13.15;;
22715;SDS011;11525;51.152;4.456;2023-09-07T05:24:07;17.05;;;13.40;;
22715;SDS011;11525;51.152;4.456;2023-09-07T05:26:33;18.75;;;13.57;;
22715;SDS011;11525;51.152;4.456;2023-09-07T05:28:59;21.33;;;13.65;;
22715;SDS011;11525;51.152;4.456;2023-09-07T05:31:24;16.05;;;12.80;;
22715;SDS011;11525;51.152;4.456;2023-09-07T05:33:50;15.68;;;13.05;;
22715;SDS011;11525;51.152;4.456;2023-09-07T05:36:17;14.60;;;13.02;;
22715;SDS011;11525;51.152;4.456;2023-09-07T05:38:42;16.58;;;14.13;;
22715;SDS011;11525;51.152;4.456;2023-09-07T05:41:08;23.65;;;15.60;;
22715;SDS011;11525;51.152;4.456;2023-09-07T05:43:34;17.45;;;13.75;;
22715;SDS011;11525;51.152;4.456;2023-09-07T05:46:00;18.25;;;15.05;;
22715;SDS011;11525;51.152;4.456;2023-09-07T05:48:29;19.98;;;14.98;;
22715;SDS011;11525;51.152;4.456;2023-09-07T05:50:54;23.23;;;14.52;;
22715;SDS011;11525;51.152;4.456;2023-09-07T05:53:20;20.00;;;15.35;;
22715;SDS011;11525;51.152;4.456;2023-09-07T05:55:46;18.08;;;15.02;;
22715;SDS011;11525;51.152;4.456;2023-09-07T05:58:12;21.50;;;14.57;;
22715;SDS011;11525;51.152;4.456;2023-09-07T06:00:38;20.20;;;15.18;;
22715;SDS011;11525;51.152;4.456;2023-09-07T06:03:04;18.75;;;14.63;;
22715;SDS011;11525;51.152;4.456;2023-09-07T06:05:31;18.20;;;14.13;;
22715;SDS011;11525;51.152;4.456;2023-09-07T06:07:58;19.45;;;15.10;;
22715;SDS011;11525;51.152;4.456;2023-09-07T06:10:23;21.83;;;15.10;;
22715;SDS011;11525;51.152;4.456;2023-09-07T06:12:49;16.10;;;13.57;;
22715;SDS011;11525;51.152;4.456;2023-09-07T06:15:15;21.15;;;14.88;;
22715;SDS011;11525;51.152;4.456;2023-09-07T06:17:41;18.65;;;14.93;;
22715;SDS011;11525;51.152;4.456;2023-09-07T06:20:07;23.63;;;14.90;;
22715;SDS011;11525;51.152;4.456;2023-09-07T06:22:34;18.30;;;14.45;;
22715;SDS011;11525;51.152;4.456;2023-09-07T06:24:59;15.38;;;12.90;;
22715;SDS011;11525;51.152;4.456;2023-09-07T06:27:25;17.05;;;13.73;;
22715;SDS011;11525;51.152;4.456;2023-09-07T06:29:50;21.23;;;14.43;;
22715;SDS011;11525;51.152;4.456;2023-09-07T06:32:17;21.77;;;14.70;;
22715;SDS011;11525;51.152;4.456;2023-09-07T06:34:43;18.50;;;13.75;;
22715;SDS011;11525;51.152;4.456;2023-09-07T06:37:09;20.92;;;14.88;;
22715;SDS011;11525;51.152;4.456;2023-09-07T06:39:36;16.80;;;13.25;;
22715;SDS011;11525;51.152;4.456;2023-09-07T06:42:01;13.45;;;12.02;;
22715;SDS011;11525;51.152;4.456;2023-09-07T06:44:28;16.23;;;11.50;;
22715;SDS011;11525;51.152;4.456;2023-09-07T06:46:54;15.05;;;10.05;;
22715;SDS011;11525;51.152;4.456;2023-09-07T06:49:21;16.88;;;9.25;;
22715;SDS011;11525;51.152;4.456;2023-09-07T06:51:47;12.52;;;9.40;;
22715;SDS011;11525;51.152;4.456;2023-09-07T06:54:12;17.08;;;9.10;;
22715;SDS011;11525;51.152;4.456;2023-09-07T06:56:38;15.85;;;9.48;;
22715;SDS011;11525;51.152;4.456;2023-09-07T06:59:04;12.55;;;9.07;;
22715;SDS011;11525;51.152;4.456;2023-09-07T07:01:30;11.82;;;9.25;;
22715;SDS011;11525;51.152;4.456;2023-09-07T07:03:56;16.15;;;9.55;;
22715;SDS011;11525;51.152;4.456;2023-09-07T07:06:22;11.63;;;9.52;;
22715;SDS011;11525;51.152;4.456;2023-09-07T07:08:48;12.93;;;9.65;;
22715;SDS011;11525;51.152;4.456;2023-09-07T07:11:14;18.05;;;9.82;;
22715;SDS011;11525;51.152;4.456;2023-09-07T07:13:39;14.77;;;9.35;;
22715;SDS011;11525;51.152;4.456;2023-09-07T07:16:05;14.40;;;8.57;;
22715;SDS011;11525;51.152;4.456;2023-09-07T07:18:31;13.23;;;8.70;;
22715;SDS011;11525;51.152;4.456;2023-09-07T07:20:57;17.38;;;8.48;;
22715;SDS011;11525;51.152;4.456;2023-09-07T07:23:22;11.45;;;8.57;;
22715;SDS011;11525;51.152;4.456;2023-09-07T07:25:48;15.35;;;9.40;;
22715;SDS011;11525;51.152;4.456;2023-09-07T07:28:14;16.95;;;9.52;;
22715;SDS011;11525;51.152;4.456;2023-09-07T07:30:40;11.13;;;8.75;;
22715;SDS011;11525;51.152;4.456;2023-09-07T07:33:06;15.95;;;9.02;;
22715;SDS011;11525;51.152;4.456;2023-09-07T07:35:33;13.25;;;8.52;;
22715;SDS011;11525;51.152;4.456;2023-09-07T07:38:02;13.13;;;8.90;;
22715;SDS011;11525;51.152;4.456;2023-09-07T07:40:29;13.07;;;9.05;;
22715;SDS011;11525;51.152;4.456;2023-09-07T07:42:55;11.88;;;8.30;;
22715;SDS011;11525;51.152;4.456;2023-09-07T07:45:20;10.32;;;8.27;;
22715;SDS011;11525;51.152;4.456;2023-09-07T07:47:48;11.07;;;8.93;;
22715;SDS011;11525;51.152;4.456;2023-09-07T07:50:14;9.98;;;8.32;;
22715;SDS011;11525;51.152;4.456;2023-09-07T07:52:40;11.95;;;7.90;;
22715;SDS011;11525;51.152;4.456;2023-09-07T07:55:06;10.43;;;8.10;;
22715;SDS011;11525;51.152;4.456;2023-09-07T07:57:32;11.90;;;8.38;;
22715;SDS011;11525;51.152;4.456;2023-09-07T07:59:58;11.40;;;8.18;;
22715;SDS011;11525;51.152;4.456;2023-09-07T08:02:24;11.30;;;7.18;;
22715;SDS011;11525;51.152;4.456;2023-09-07T08:04:50;10.40;;;7.22;;
22715;SDS011;11525;51.152;4.456;2023-09-07T08:07:16;8.38;;;7.28;;
22715;SDS011;11525;51.152;4.456;2023-09-07T08:09:42;7.85;;;6.47;;
22715;SDS011;11525;51.152;4.456;2023-09-07T08:12:07;9.93;;;6.85;;
22715;SDS011;11525;51.152;4.456;2023-09-07T08:14:33;10.50;;;6.90;;
22715;SDS011;11525;51.152;4.456;2023-09-07T08:16:59;9.60;;;6.05;;
22715;SDS011;11525;51.152;4.456;2023-09-07T08:19:26;8.93;;;6.47;;
22715;SDS011;11525;51.152;4.456;2023-09-07T08:21:53;11.18;;;6.05;;
22715;SDS011;11525;51.152;4.456;2023-09-07T08:24:19;9.30;;;5.63;;
22715;SDS011;11525;51.152;4.456;2023-09-07T08:26:44;9.55;;;6.40;;
22715;SDS011;11525;51.152;4.456;2023-09-07T08:29:10;8.23;;;5.72;;
22715;SDS011;11525;51.152;4.456;2023-09-07T08:31:36;7.88;;;5.65;;
22715;SDS011;11525;51.152;4.456;2023-09-07T08:34:04;8.07;;;5.75;;
22715;SDS011;11525;51.152;4.456;2023-09-07T08:36:31;7.47;;;5.68;;
22715;SDS011;11525;51.152;4.456;2023-09-07T08:39:03;8.27;;;5.28;;
22715;SDS011;11525;51.152;4.456;2023-09-07T08:41:38;6.65;;;5.75;;
22715;SDS011;11525;51.152;4.456;2023-09-07T08:44:12;9.00;;;5.70;;
22715;SDS011;11525;51.152;4.456;2023-09-07T08:46:44;6.40;;;5.10;;
22715;SDS011;11525;51.152;4.456;2023-09-07T08:49:10;12.38;;;5.25;;
22715;SDS011;11525;51.152;4.456;2023-09-07T08:51:37;8.43;;;4.97;;
22715;SDS011;11525;51.152;4.456;2023-09-07T08:54:07;9.80;;;5.10;;
22715;SDS011;11525;51.152;4.456;2023-09-07T08:56:33;10.82;;;5.55;;
22715;SDS011;11525;51.152;4.456;2023-09-07T08:58:59;6.68;;;5.03;;
22715;SDS011;11525;51.152;4.456;2023-09-07T09:01:25;7.32;;;5.63;;
22715;SDS011;11525;51.152;4.456;2023-09-07T09:03:51;9.77;;;5.07;;
22715;SDS011;11525;51.152;4.456;2023-09-07T09:06:17;11.70;;;4.63;;
22715;SDS011;11525;51.152;4.456;2023-09-07T09:08:44;8.07;;;4.70;;
22715;SDS011;11525;51.152;4.456;2023-09-07T09:11:14;9.05;;;5.60;;
22715;SDS011;11525;51.152;4.456;2023-09-07T09:13:42;7.03;;;4.57;;
22715;SDS011;11525;51.152;4.456;2023-09-07T09:16:08;6.15;;;4.43;;
22715;SDS011;11525;51.152;4.456;2023-09-07T09:18:34;5.80;;;4.05;;
22715;SDS011;11525;51.152;4.456;2023-09-07T09:21:00;7.03;;;4.57;;
22715;SDS011;11525;51.152;4.456;2023-09-07T09:23:33;5.78;;;4.22;;
22715;SDS011;11525;51.152;4.456;2023-09-07T09:26:00;7.45;;;4.57;;
22715;SDS011;11525;51.152;4.456;2023-09-07T09:28:26;6.20;;;4.35;;
22715;SDS011;11525;51.152;4.456;2023-09-07T09:30:56;6.82;;;4.47;;
22715;SDS011;11525;51.152;4.456;2023-09-07T09:33:23;7.82;;;4.25;;
22715;SDS011;11525;51.152;4.456;2023-09-07T09:35:49;5.40;;;4.20;;
22715;SDS011;11525;51.152;4.456;2023-09-07T09:38:15;6.35;;;3.95;;
22715;SDS011;11525;51.152;4.456;2023-09-07T09:40:42;7.03;;;4.32;;
22715;SDS011;11525;51.152;4.456;2023-09-07T09:43:08;5.15;;;4.15;;
22715;SDS011;11525;51.152;4.456;2023-09-07T09:45:35;6.05;;;4.35;;
22715;SDS011;11525;51.152;4.456;2023-09-07T09:48:01;4.78;;;3.80;;
22715;SDS011;11525;51.152;4.456;2023-09-07T09:50:28;5.40;;;4.28;;
22715;SDS011;11525;51.152;4.456;2023-09-07T09:52:54;5.50;;;3.60;;
22715;SDS011;11525;51.152;4.456;2023-09-07T09:55:21;6.60;;;3.75;;
22715;SDS011;11525;51.152;4.456;2023-09-07T09:57:47;6.00;;;3.75;;
22715;SDS011;11525;51.152;4.456;2023-09-07T10:00:15;10.15;;;3.63;;
22715;SDS011;11525;51.152;4.456;2023-09-07T10:02:51;6.85;;;3.33;;
22715;SDS011;11525;51.152;4.456;2023-09-07T10:05:23;6.05;;;3.35;;
22715;SDS011;11525;51.152;4.456;2023-09-07T10:07:50;6.13;;;3.38;;
22715;SDS011;11525;51.152;4.456;2023-09-07T10:10:17;7.63;;;3.25;;
22715;SDS011;11525;51.152;4.456;2023-09-07T10:12:51;5.07;;;3.20;;
22715;SDS011;11525;51.152;4.456;2023-09-07T10:15:21;7.30;;;3.22;;
22715;SDS011;11525;51.152;4.456;2023-09-07T10:18:01;5.30;;;3.47;;
22715;SDS011;11525;51.152;4.456;2023-09-07T10:20:50;6.25;;;3.58;;
22715;SDS011;11525;51.152;4.456;2023-09-07T10:23:23;4.78;;;3.25;;
22715;SDS011;11525;51.152;4.456;2023-09-07T10:26:16;4.95;;;3.30;;
22715;SDS011;11525;51.152;4.456;2023-09-07T10:28:43;5.47;;;3.60;;
22715;SDS011;11525;51.152;4.456;2023-09-07T10:31:19;6.78;;;3.63;;
22715;SDS011;11525;51.152;4.456;2023-09-07T10:33:45;4.07;;;3.13;;
22715;SDS011;11525;51.152;4.456;2023-09-07T10:36:24;6.78;;;3.15;;
22715;SDS011;11525;51.152;4.456;2023-09-07T10:38:51;4.63;;;3.15;;
22715;SDS011;11525;51.152;4.456;2023-09-07T10:41:20;8.63;;;3.45;;
22715;SDS011;11525;51.152;4.456;2023-09-07T10:43:47;5.75;;;3.28;;
22715;SDS011;11525;51.152;4.456;2023-09-07T10:46:20;3.95;;;2.83;;
22715;SDS011;11525;51.152;4.456;2023-09-07T10:48:50;4.60;;;3.05;;
22715;SDS011;11525;51.152;4.456;2023-09-07T10:51:17;4.45;;;3.28;;
22715;SDS011;11525;51.152;4.456;2023-09-07T10:53:44;5.53;;;3.20;;
22715;SDS011;11525;51.152;4.456;2023-09-07T10:56:09;3.53;;;2.97;;
22715;SDS011;11525;51.152;4.456;2023-09-07T10:58:36;4.45;;;3.25;;
22715;SDS011;11525;51.152;4.456;2023-09-07T11:01:07;6.30;;;3.67;;
22715;SDS011;11525;51.152;4.456;2023-09-07T11:03:36;5.68;;;3.35;;
22715;SDS011;11525;51.152;4.456;2023-09-07T11:08:36;5.72;;;3.00;;
22715;SDS011;11525;51.152;4.456;2023-09-07T11:11:02;7.25;;;3.78;;
22715;SDS011;11525;51.152;4.456;2023-09-07T11:13:28;6.57;;;3.58;;
22715;SDS011;11525;51.152;4.456;2023-09-07T11:15:55;4.63;;;3.22;;
22715;SDS011;11525;51.152;4.456;2023-09-07T11:18:22;5.13;;;3.20;;
22715;SDS011;11525;51.152;4.456;2023-09-07T11:20:49;4.90;;;3.30;;
22715;SDS011;11525;51.152;4.456;2023-09-07T11:23:16;4.40;;;3.60;;
22715;SDS011;11525;51.152;4.456;2023-09-07T11:25:42;3.40;;;3.10;;
22715;SDS011;11525;51.152;4.456;2023-09-07T11:28:09;4.18;;;3.28;;
22715;SDS011;11525;51.152;4.456;2023-09-07T11:30:36;4.28;;;3.75;;
22715;SDS011;11525;51.152;4.456;2023-09-07T11:33:04;6.05;;;3.75;;
22715;SDS011;11525;51.152;4.456;2023-09-07T11:35:31;4.97;;;3.25;;
22715;SDS011;11525;51.152;4.456;2023-09-07T11:37:59;8.25;;;3.25;;
22715;SDS011;11525;51.152;4.456;2023-09-07T11:40:25;13.07;;;3.80;;
22715;SDS011;11525;51.152;4.456;2023-09-07T11:42:51;3.38;;;3.08;;
22715;SDS011;11525;51.152;4.456;2023-09-07T11:45:17;6.07;;;3.60;;
22715;SDS011;11525;51.152;4.456;2023-09-07T11:47:44;4.90;;;3.47;;
22715;SDS011;11525;51.152;4.456;2023-09-07T11:50:10;6.07;;;3.72;;
22715;SDS011;11525;51.152;4.456;2023-09-07T11:52:36;7.47;;;3.08;;
22715;SDS011;11525;51.152;4.456;2023-09-07T11:55:01;5.18;;;3.20;;
22715;SDS011;11525;51.152;4.456;2023-09-07T11:57:30;4.97;;;3.60;;
22715;SDS011;11525;51.152;4.456;2023-09-07T11:59:56;7.22;;;3.20;;
22715;SDS011;11525;51.152;4.456;2023-09-07T12:02:22;7.97;;;3.85;;
22715;SDS011;11525;51.152;4.456;2023-09-07T12:04:47;4.03;;;3.55;;
22715;SDS011;11525;51.152;4.456;2023-09-07T12:07:14;6.07;;;3.40;;
22715;SDS011;11525;51.152;4.456;2023-09-07T12:09:40;4.70;;;3.22;;
22715;SDS011;11525;51.152;4.456;2023-09-07T12:12:06;9.95;;;3.65;;
22715;SDS011;11525;51.152;4.456;2023-09-07T12:14:32;14.02;;;3.85;;
22715;SDS011;11525;51.152;4.456;2023-09-07T12:16:57;3.65;;;3.10;;
22715;SDS011;11525;51.152;4.456;2023-09-07T12:19:23;3.80;;;3.20;;
22715;SDS011;11525;51.152;4.456;2023-09-07T12:21:50;7.07;;;3.00;;
22715;SDS011;11525;51.152;4.456;2023-09-07T12:24:16;4.63;;;3.05;;
22715;SDS011;11525;51.152;4.456;2023-09-07T12:26:42;4.68;;;3.30;;
22715;SDS011;11525;51.152;4.456;2023-09-07T12:29:08;5.25;;;3.45;;
22715;SDS011;11525;51.152;4.456;2023-09-07T12:31:33;3.97;;;3.40;;
22715;SDS011;11525;51.152;4.456;2023-09-07T12:33:59;6.93;;;3.38;;
22715;SDS011;11525;51.152;4.456;2023-09-07T12:36:25;8.98;;;3.08;;
22715;SDS011;11525;51.152;4.456;2023-09-07T12:38:54;7.43;;;4.25;;
22715;SDS011;11525;51.152;4.456;2023-09-07T12:41:26;6.25;;;3.15;;
22715;SDS011;11525;51.152;4.456;2023-09-07T12:43:55;6.72;;;3.47;;
22715;SDS011;11525;51.152;4.456;2023-09-07T12:46:21;5.97;;;3.35;;
22715;SDS011;11525;51.152;4.456;2023-09-07T12:48:47;5.50;;;3.30;;
22715;SDS011;11525;51.152;4.456;2023-09-07T12:51:12;6.78;;;3.20;;
22715;SDS011;11525;51.152;4.456;2023-09-07T12:53:38;4.65;;;3.03;;
22715;SDS011;11525;51.152;4.456;2023-09-07T12:56:05;4.85;;;2.80;;
22715;SDS011;11525;51.152;4.456;2023-09-07T12:58:30;4.65;;;3.03;;
22715;SDS011;11525;51.152;4.456;2023-09-07T13:00:56;5.40;;;3.08;;
22715;SDS011;11525;51.152;4.456;2023-09-07T13:03:22;3.38;;;3.08;;
22715;SDS011;11525;51.152;4.456;2023-09-07T13:05:47;5.57;;;2.92;;
22715;SDS011;11525;51.152;4.456;2023-09-07T13:08:14;6.03;;;3.47;;
22715;SDS011;11525;51.152;4.456;2023-09-07T13:10:39;4.07;;;3.17;;
22715;SDS011;11525;51.152;4.456;2023-09-07T13:13:05;6.35;;;3.20;;
22715;SDS011;11525;51.152;4.456;2023-09-07T13:15:32;6.63;;;3.10;;
22715;SDS011;11525;51.152;4.456;2023-09-07T13:17:57;3.88;;;3.45;;
22715;SDS011;11525;51.152;4.456;2023-09-07T13:20:23;4.70;;;3.15;;
22715;SDS011;11525;51.152;4.456;2023-09-07T13:22:49;3.92;;;3.08;;
22715;SDS011;11525;51.152;4.456;2023-09-07T13:25:15;4.15;;;2.95;;
22715;SDS011;11525;51.152;4.456;2023-09-07T13:27:40;5.13;;;3.40;;
22715;SDS011;11525;51.152;4.456;2023-09-07T13:30:06;4.70;;;3.63;;
22715;SDS011;11525;51.152;4.456;2023-09-07T13:32:33;7.57;;;3.25;;
22715;SDS011;11525;51.152;4.456;2023-09-07T13:34:59;4.72;;;3.22;;
22715;SDS011;11525;51.152;4.456;2023-09-07T13:37:25;6.57;;;3.42;;
22715;SDS011;11525;51.152;4.456;2023-09-07T13:39:51;7.47;;;3.38;;
22715;SDS011;11525;51.152;4.456;2023-09-07T13:42:16;4.07;;;3.40;;
22715;SDS011;11525;51.152;4.456;2023-09-07T13:44:42;5.20;;;3.20;;
22715;SDS011;11525;51.152;4.456;2023-09-07T13:47:10;3.80;;;3.50;;
22715;SDS011;11525;51.152;4.456;2023-09-07T13:49:36;3.55;;;3.03;;
22715;SDS011;11525;51.152;4.456;2023-09-07T13:52:01;5.95;;;3.08;;
22715;SDS011;11525;51.152;4.456;2023-09-07T13:54:28;4.32;;;3.60;;
22715;SDS011;11525;51.152;4.456;2023-09-07T13:56:54;9.68;;;3.42;;
22715;SDS011;11525;51.152;4.456;2023-09-07T13:59:21;5.55;;;3.40;;
22715;SDS011;11525;51.152;4.456;2023-09-07T14:01:46;5.40;;;3.35;;
22715;SDS011;11525;51.152;4.456;2023-09-07T14:04:14;5.53;;;3.30;;
22715;SDS011;11525;51.152;4.456;2023-09-07T14:06:40;7.22;;;3.42;;
22715;SDS011;11525;51.152;4.456;2023-09-07T14:09:05;8.52;;;3.60;;
22715;SDS011;11525;51.152;4.456;2023-09-07T14:11:32;7.97;;;4.15;;
22715;SDS011;11525;51.152;4.456;2023-09-07T14:13:58;7.75;;;3.63;;
22715;SDS011;11525;51.152;4.456;2023-09-07T14:16:24;4.95;;;3.65;;
22715;SDS011;11525;51.152;4.456;2023-09-07T14:18:50;5.28;;;3.70;;
22715;SDS011;11525;51.152;4.456;2023-09-07T14:21:16;5.15;;;3.83;;
22715;SDS011;11525;51.152;4.456;2023-09-07T14:23:45;4.90;;;3.45;;
22715;SDS011;11525;51.152;4.456;2023-09-07T14:26:11;5.95;;;3.60;;
22715;SDS011;11525;51.152;4.456;2023-09-07T14:28:37;6.30;;;3.65;;
22715;SDS011;11525;51.152;4.456;2023-09-07T14:31:04;5.45;;;3.90;;
22715;SDS011;11525;51.152;4.456;2023-09-07T14:33:32;8.38;;;3.78;;
22715;SDS011;11525;51.152;4.456;2023-09-07T14:35:58;8.43;;;3.97;;
22715;SDS011;11525;51.152;4.456;2023-09-07T14:38:24;8.57;;;3.85;;